createdAt,value
2022-09-12T00:01:27.595Z,77.39
2022-09-12T00:03:58.695Z,77.45
2022-09-12T00:06:37.350Z,77.56
2022-09-12T00:09:08.912Z,77.49
2022-09-12T00:11:38.914Z,77.54
2022-09-12T00:14:09.033Z,77.55
2022-09-12T00:16:38.007Z,77.46
2022-09-12T00:19:07.939Z,77.91
2022-09-12T00:21:38.402Z,78.37
2022-09-12T00:24:06.853Z,78.47
2022-09-12T00:26:35.536Z,78.86
2022-09-12T00:29:04.629Z,79.15
2022-09-12T00:31:33.356Z,79.34
2022-09-12T00:34:02.516Z,79.24
2022-09-12T00:36:31.000Z,79.30
2022-09-12T00:38:59.682Z,79.63
2022-09-12T00:41:30.114Z,79.68
2022-09-12T00:44:22.962Z,79.33
2022-09-12T00:47:19.501Z,79.64
2022-09-12T00:49:50.036Z,80.05
2022-09-12T00:52:25.503Z,80.09
2022-09-12T00:55:08.090Z,79.76
2022-09-12T00:57:42.433Z,79.53
2022-09-12T01:00:16.410Z,79.36
2022-09-12T01:02:49.303Z,79.47
2022-09-12T01:05:18.090Z,79.35
2022-09-12T01:07:49.131Z,79.21
2022-09-12T01:10:18.025Z,79.17
2022-09-12T01:12:46.811Z,79.17
2022-09-12T01:15:15.190Z,79.04
2022-09-12T01:17:50.232Z,78.77
2022-09-12T01:20:50.167Z,78.62
2022-09-12T01:23:29.791Z,78.51
2022-09-12T01:26:09.534Z,78.81
2022-09-12T01:29:13.037Z,78.76
2022-09-12T01:31:56.615Z,78.46
2022-09-12T01:34:30.825Z,78.48
2022-09-12T01:37:11.962Z,78.47
2022-09-12T01:39:46.111Z,78.67
2022-09-12T01:42:35.185Z,78.60
2022-09-12T01:45:12.122Z,78.89
2022-09-12T01:47:44.905Z,79.27
2022-09-12T01:50:27.418Z,79.64
2022-09-12T01:53:02.351Z,79.57
2022-09-12T01:55:34.973Z,79.62
2022-09-12T01:58:14.879Z,80.31
2022-09-12T02:00:50.072Z,80.10
2022-09-12T02:03:24.269Z,80.34
2022-09-12T02:05:58.341Z,80.23
2022-09-12T02:08:32.256Z,80.30
2022-09-12T02:11:07.567Z,80.79
2022-09-12T02:13:46.626Z,81.04
2022-09-12T02:16:40.427Z,80.94
2022-09-12T02:19:16.251Z,81.18
2022-09-12T02:21:54.683Z,81.00
2022-09-12T02:24:30.367Z,80.96
2022-09-12T02:27:05.432Z,80.95
2022-09-12T02:29:33.624Z,80.82
2022-09-12T02:32:10.201Z,80.88
2022-09-12T02:34:44.208Z,80.82
2022-09-12T02:37:18.541Z,80.59
2022-09-12T02:39:47.254Z,80.41
2022-09-12T02:42:15.391Z,79.84
2022-09-12T02:44:43.507Z,79.66
2022-09-12T02:47:21.776Z,79.52
2022-09-12T02:49:49.841Z,79.63
2022-09-12T02:52:18.630Z,79.71
2022-09-12T02:54:48.039Z,79.97
2022-09-12T02:57:23.029Z,80.07
2022-09-12T02:59:59.421Z,79.93
2022-09-12T03:03:21.882Z,79.97
2022-09-12T03:05:56.517Z,80.30
2022-09-12T03:08:30.211Z,80.36
2022-09-12T03:11:16.662Z,80.31
2022-09-12T03:14:06.166Z,80.22
2022-09-12T03:16:37.177Z,80.38
2022-09-12T03:19:16.771Z,80.44
2022-09-12T03:22:23.554Z,80.38
2022-09-12T03:24:58.525Z,80.88
2022-09-12T03:27:31.878Z,80.68
2022-09-12T03:30:00.956Z,80.91
2022-09-12T03:32:46.682Z,80.72
2022-09-12T03:35:19.846Z,80.83
2022-09-12T03:37:52.733Z,81.31
2022-09-12T03:40:21.218Z,81.27
2022-09-12T03:42:49.165Z,81.21
2022-09-12T03:45:17.257Z,81.20
2022-09-12T03:47:45.543Z,81.66
2022-09-12T03:50:13.606Z,81.82
2022-09-12T03:52:41.786Z,82.24
2022-09-12T03:55:10.365Z,82.19
2022-09-12T03:57:38.642Z,81.93
2022-09-12T04:00:08.744Z,81.91
2022-09-12T04:02:43.599Z,81.97
2022-09-12T04:05:11.764Z,81.83
2022-09-12T04:07:39.836Z,81.76
2022-09-12T04:10:09.610Z,81.35
2022-09-12T04:12:39.685Z,81.41
2022-09-12T04:15:08.967Z,81.39
2022-09-12T04:17:37.036Z,81.65
2022-09-12T04:20:05.750Z,81.22
2022-09-12T04:22:34.003Z,80.30
2022-09-12T04:25:02.896Z,80.27
2022-09-12T04:27:31.074Z,80.17
2022-09-12T04:30:00.677Z,80.02
2022-09-12T04:32:31.515Z,79.41
2022-09-12T04:34:59.708Z,79.69
2022-09-12T04:37:28.061Z,79.81
2022-09-12T04:39:58.041Z,79.75
2022-09-12T04:42:26.346Z,79.66
2022-09-12T04:44:54.854Z,79.12
2022-09-12T04:47:23.323Z,78.96
2022-09-12T04:49:51.520Z,78.53
2022-09-12T04:52:20.047Z,78.85
2022-09-12T04:54:48.560Z,79.14
2022-09-12T04:57:16.630Z,79.08
2022-09-12T04:59:44.703Z,78.86
2022-09-12T05:02:12.694Z,79.12
2022-09-12T05:04:40.863Z,79.34
2022-09-12T05:07:09.024Z,79.23
2022-09-12T05:09:37.094Z,78.62
2022-09-12T05:12:06.023Z,78.65
2022-09-12T05:14:35.185Z,78.95
2022-09-12T05:17:06.057Z,78.97
2022-09-12T05:19:34.101Z,79.01
2022-09-12T05:22:02.679Z,78.70
2022-09-12T05:24:30.956Z,79.07
2022-09-12T05:26:59.641Z,79.05
2022-09-12T05:29:27.918Z,79.19
2022-09-12T05:31:55.990Z,79.00
2022-09-12T05:34:24.502Z,78.40
2022-09-12T05:36:52.645Z,78.59
2022-09-12T05:39:21.123Z,78.49
2022-09-12T05:41:49.094Z,78.25
2022-09-12T05:44:17.271Z,78.13
2022-09-12T05:46:48.611Z,78.17
2022-09-12T05:49:16.944Z,78.28
2022-09-12T05:51:45.963Z,78.08
2022-09-12T05:54:21.002Z,78.04
2022-09-12T05:56:49.407Z,77.97
2022-09-12T05:59:21.673Z,77.83
2022-09-12T06:01:49.827Z,77.34
2022-09-12T06:04:18.528Z,77.02
2022-09-12T06:06:47.036Z,77.01
2022-09-12T06:09:16.914Z,77.26
2022-09-12T06:11:46.807Z,76.96
2022-09-12T06:14:17.885Z,76.84
2022-09-12T06:16:47.594Z,75.44
2022-09-12T06:19:19.153Z,75.78
2022-09-12T06:21:49.833Z,75.97
2022-09-12T06:24:19.242Z,75.09
2022-09-12T06:26:48.932Z,74.36
2022-09-12T06:29:17.175Z,74.87
2022-09-12T06:31:45.959Z,73.90
2022-09-12T06:34:15.977Z,73.63
2022-09-12T06:36:49.064Z,73.51
2022-09-12T06:39:22.869Z,73.19
2022-09-12T06:41:52.278Z,71.39
2022-09-12T06:44:30.071Z,69.28
2022-09-12T06:46:58.967Z,67.86
2022-09-12T06:49:27.039Z,66.97
2022-09-12T06:51:55.207Z,65.74
2022-09-12T06:54:23.694Z,65.22
2022-09-12T06:56:51.760Z,65.54
2022-09-12T06:59:20.245Z,65.90
2022-09-12T07:01:48.609Z,65.77
2022-09-12T07:04:16.905Z,65.07
2022-09-12T07:06:45.177Z,63.37
2022-09-12T07:09:18.113Z,63.41
2022-09-12T07:11:46.849Z,63.25
2022-09-12T07:14:15.535Z,62.42
2022-09-12T07:16:43.905Z,60.28
2022-09-12T07:19:12.394Z,60.16
2022-09-12T07:21:41.007Z,59.96
2022-09-12T07:24:11.102Z,60.50
2022-09-12T07:26:42.456Z,61.08
2022-09-12T07:29:36.484Z,60.77
2022-09-12T07:32:06.757Z,59.06
2022-09-12T07:34:35.537Z,58.70
2022-09-12T07:37:04.329Z,57.99
2022-09-12T07:39:32.768Z,57.26
2022-09-12T07:42:01.187Z,55.85
2022-09-12T07:44:31.104Z,57.23
2022-09-12T07:46:58.997Z,57.26
2022-09-12T07:49:27.038Z,56.33
2022-09-12T07:51:55.111Z,56.89
2022-09-12T07:54:23.388Z,55.93
2022-09-12T07:56:51.913Z,54.95
2022-09-12T07:59:41.476Z,54.20
2022-09-12T08:02:17.133Z,53.72
2022-09-12T08:04:48.111Z,53.56
2022-09-12T08:07:16.414Z,53.13
2022-09-12T08:09:44.484Z,53.13
2022-09-12T08:12:12.759Z,52.82
2022-09-12T08:14:40.838Z,52.03
2022-09-12T08:17:09.005Z,52.48
2022-09-12T08:19:37.280Z,52.41
2022-09-12T08:22:06.070Z,52.31
2022-09-12T08:24:34.348Z,52.71
2022-09-12T08:27:02.520Z,52.30
2022-09-12T08:29:30.695Z,50.61
2022-09-12T08:31:58.976Z,50.72
2022-09-12T08:34:26.956Z,49.76
2022-09-12T08:36:55.218Z,49.31
2022-09-12T08:39:24.722Z,48.56
2022-09-12T08:42:03.702Z,48.13
2022-09-12T08:44:54.545Z,49.13
2022-09-12T08:47:27.037Z,50.07
2022-09-12T08:50:10.070Z,48.71
2022-09-12T08:53:03.632Z,46.56
2022-09-12T08:55:49.408Z,47.06
2022-09-12T08:58:20.358Z,47.46
2022-09-12T09:00:59.690Z,47.13
2022-09-12T09:03:45.649Z,45.77
2022-09-12T09:06:27.062Z,45.51
2022-09-12T09:09:24.527Z,46.36
2022-09-12T09:12:36.933Z,46.37
2022-09-12T09:15:10.380Z,45.02
2022-09-12T09:17:50.182Z,45.07
2022-09-12T09:20:34.329Z,43.79
2022-09-12T09:23:05.570Z,43.73
2022-09-12T09:25:45.939Z,43.07
2022-09-12T09:28:19.382Z,42.32
2022-09-12T09:30:47.474Z,41.73
2022-09-12T09:33:23.107Z,42.77
2022-09-12T09:36:06.085Z,42.82
2022-09-12T09:38:50.566Z,42.48
2022-09-12T09:41:41.638Z,39.34
2022-09-12T09:44:10.638Z,38.71
2022-09-12T09:46:38.864Z,38.18
2022-09-12T09:49:12.414Z,37.98
2022-09-12T09:51:42.938Z,35.98
2022-09-12T09:54:22.684Z,35.30
2022-09-12T09:56:50.858Z,37.37
2022-09-12T09:59:26.439Z,39.77
2022-09-12T10:02:24.364Z,39.34
2022-09-12T10:04:56.205Z,39.06
2022-09-12T10:07:26.236Z,37.90
2022-09-12T10:10:23.509Z,39.16
2022-09-12T10:13:06.737Z,38.46
2022-09-12T10:15:35.059Z,36.83
2022-09-12T10:18:03.908Z,37.52
2022-09-12T10:20:43.043Z,38.55
2022-09-12T10:23:37.891Z,37.81
2022-09-12T10:26:13.896Z,36.24
2022-09-12T10:28:45.581Z,36.46
2022-09-12T10:31:29.156Z,36.63
2022-09-12T10:34:01.157Z,35.69
2022-09-12T10:36:40.946Z,35.18
2022-09-12T10:39:18.798Z,36.41
2022-09-12T10:41:47.493Z,36.09
2022-09-12T10:44:26.335Z,36.88
2022-09-12T10:46:55.301Z,36.48
2022-09-12T10:49:38.216Z,33.79
2022-09-12T10:52:36.704Z,32.49
2022-09-12T10:55:12.257Z,32.33
2022-09-12T10:57:49.334Z,31.60
2022-09-12T11:00:25.911Z,32.36
2022-09-12T11:03:07.186Z,32.09
2022-09-12T11:05:48.166Z,33.34
2022-09-12T11:08:22.309Z,33.04
2022-09-12T11:11:00.275Z,34.94
2022-09-12T11:13:52.619Z,34.34
2022-09-12T11:16:43.077Z,33.38
2022-09-12T11:19:43.017Z,33.77
2022-09-12T11:22:22.785Z,33.82
2022-09-12T11:25:05.583Z,34.01
2022-09-12T11:27:42.601Z,33.61
2022-09-12T11:30:16.501Z,33.13
2022-09-12T11:33:29.716Z,31.62
2022-09-12T11:35:58.029Z,31.28
2022-09-12T11:39:04.160Z,31.84
2022-09-12T11:41:37.760Z,29.91
2022-09-12T11:44:29.795Z,29.92
2022-09-12T11:46:58.588Z,30.08
2022-09-12T11:49:36.995Z,30.16
2022-09-12T11:52:22.887Z,29.85
2022-09-12T11:55:06.016Z,29.13
2022-09-12T11:57:50.093Z,28.32
2022-09-12T12:00:21.815Z,28.41
2022-09-12T12:02:53.066Z,28.64
2022-09-12T12:05:26.736Z,28.20
2022-09-12T12:07:57.975Z,27.31
2022-09-12T12:10:36.425Z,26.88
2022-09-12T12:13:30.847Z,27.49
2022-09-12T12:16:07.309Z,26.78
2022-09-12T12:18:40.383Z,26.90
2022-09-12T12:21:30.050Z,27.54
2022-09-12T12:24:10.013Z,26.82
2022-09-12T12:26:40.945Z,27.75
2022-09-12T12:29:22.008Z,27.99
2022-09-12T12:32:02.275Z,28.46
2022-09-12T12:34:36.597Z,27.89
2022-09-12T12:37:29.783Z,28.00
2022-09-12T12:40:10.493Z,27.59
2022-09-12T12:42:38.335Z,27.92
2022-09-12T12:45:09.019Z,27.60
2022-09-12T12:47:40.076Z,26.54
2022-09-12T12:50:10.692Z,26.39
2022-09-12T12:52:56.786Z,25.34
2022-09-12T12:55:33.565Z,25.26
2022-09-12T12:58:04.376Z,25.12
2022-09-12T13:00:39.961Z,25.11
2022-09-12T13:03:30.833Z,25.26
2022-09-12T13:06:09.076Z,23.57
2022-09-12T13:08:43.825Z,22.77
2022-09-12T13:11:17.005Z,22.32
2022-09-12T13:13:57.239Z,22.29
2022-09-12T13:16:32.377Z,22.80
2022-09-12T13:19:14.915Z,21.73
2022-09-12T13:21:56.522Z,21.62
2022-09-12T13:24:24.583Z,21.41
2022-09-12T13:26:53.848Z,21.57
2022-09-12T13:29:24.220Z,21.42
2022-09-12T13:32:01.357Z,21.23
2022-09-12T13:34:33.349Z,20.87
2022-09-12T13:37:32.114Z,20.55
2022-09-12T13:40:06.047Z,20.91
2022-09-12T13:42:45.179Z,20.04
2022-09-12T13:45:37.608Z,19.94
2022-09-12T13:48:10.330Z,19.21
2022-09-12T13:51:06.115Z,19.06
2022-09-12T13:53:46.358Z,19.36
2022-09-12T13:56:19.341Z,19.38
2022-09-12T13:58:56.925Z,19.18
2022-09-12T14:01:38.370Z,18.44
2022-09-12T14:04:42.750Z,18.27
2022-09-12T14:07:20.309Z,18.43
2022-09-12T14:10:20.160Z,18.62
2022-09-12T14:12:50.990Z,18.78
2022-09-12T14:15:29.095Z,20.50
2022-09-12T14:18:03.115Z,20.56
2022-09-12T14:20:36.965Z,19.77
2022-09-12T14:23:23.316Z,19.78
2022-09-12T14:25:52.281Z,19.70
2022-09-12T14:28:23.573Z,20.28
2022-09-12T14:31:10.698Z,20.35
2022-09-12T14:33:56.479Z,20.64
2022-09-12T14:36:34.127Z,21.15
2022-09-12T14:39:15.247Z,21.27
2022-09-12T14:41:44.229Z,21.86
2022-09-12T14:44:25.232Z,21.78
2022-09-12T14:46:53.348Z,21.84
2022-09-12T14:49:30.873Z,22.11
2022-09-12T14:52:02.645Z,21.97
2022-09-12T14:54:31.436Z,21.27
2022-09-12T14:57:03.447Z,20.96
2022-09-12T14:59:41.285Z,20.89
2022-09-12T15:02:35.467Z,20.14
2022-09-12T15:05:12.316Z,20.28
2022-09-12T15:07:57.618Z,20.93
2022-09-12T15:10:35.647Z,20.14
2022-09-12T15:13:25.929Z,20.50
2022-09-12T15:15:56.118Z,20.14
2022-09-12T15:18:26.609Z,20.81
2022-09-12T15:21:02.274Z,20.62
2022-09-12T15:23:31.207Z,21.86
2022-09-12T15:26:00.200Z,21.81
2022-09-12T15:28:30.131Z,21.88
2022-09-12T15:31:05.237Z,22.34
2022-09-12T15:33:33.437Z,22.53
2022-09-12T15:36:01.503Z,22.90
2022-09-12T15:38:29.981Z,22.80
2022-09-12T15:40:57.949Z,23.35
2022-09-12T15:43:26.431Z,23.55
2022-09-12T15:45:54.352Z,23.56
2022-09-12T15:48:22.608Z,24.19
2022-09-12T15:50:50.848Z,24.83
2022-09-12T15:53:18.922Z,24.89
2022-09-12T15:55:47.198Z,25.49
2022-09-12T15:58:15.113Z,26.23
2022-09-12T16:00:43.147Z,26.56
2022-09-12T16:03:26.979Z,26.87
2022-09-12T16:06:02.465Z,27.50
2022-09-12T16:08:31.677Z,28.18
2022-09-12T16:11:04.609Z,28.32
2022-09-12T16:13:33.802Z,29.13
2022-09-12T16:16:02.222Z,29.38
2022-09-12T16:18:30.257Z,29.26
2022-09-12T16:20:58.333Z,29.98
2022-09-12T16:23:26.401Z,31.10
2022-09-12T16:26:02.598Z,30.94
2022-09-12T16:28:33.394Z,31.08
2022-09-12T16:31:04.488Z,31.51
2022-09-12T16:33:33.637Z,31.58
2022-09-12T16:36:10.561Z,32.22
2022-09-12T16:38:51.183Z,32.87
2022-09-12T16:41:21.262Z,32.90
2022-09-12T16:43:49.225Z,33.77
2022-09-12T16:46:23.431Z,34.22
2022-09-12T16:48:57.618Z,34.33
2022-09-12T16:51:33.012Z,34.60
2022-09-12T16:54:00.930Z,34.75
2022-09-12T16:56:29.137Z,34.66
2022-09-12T16:58:57.001Z,35.30
2022-09-12T17:01:26.638Z,36.02
2022-09-12T17:03:56.883Z,35.62
2022-09-12T17:06:26.085Z,35.79
2022-09-12T17:08:57.839Z,36.06
2022-09-12T17:11:30.944Z,36.58
2022-09-12T17:14:04.897Z,36.36
2022-09-12T17:16:38.952Z,36.20
2022-09-12T17:19:08.177Z,36.53
2022-09-12T17:21:36.634Z,36.56
2022-09-12T17:24:04.909Z,36.89
2022-09-12T17:26:33.084Z,37.19
2022-09-12T17:29:01.872Z,37.43
2022-09-12T17:31:30.075Z,37.60
2022-09-12T17:33:59.656Z,37.95
2022-09-12T17:36:28.954Z,38.21
2022-09-12T17:38:57.106Z,38.51
2022-09-12T17:41:28.666Z,38.78
2022-09-12T17:43:58.494Z,38.90
2022-09-12T17:46:32.997Z,38.95
2022-09-12T17:49:01.910Z,39.23
2022-09-12T17:51:31.536Z,39.14
2022-09-12T17:54:12.259Z,39.38
2022-09-12T17:56:40.766Z,40.09
2022-09-12T17:59:15.090Z,40.48
2022-09-12T18:02:02.189Z,40.93
2022-09-12T18:04:30.890Z,41.20
2022-09-12T18:07:00.621Z,41.02
2022-09-12T18:09:29.284Z,40.94
2022-09-12T18:11:57.766Z,41.53
2022-09-12T18:14:28.808Z,41.75
2022-09-12T18:16:57.391Z,41.73
2022-09-12T18:19:25.665Z,42.17
2022-09-12T18:21:57.311Z,42.28
2022-09-12T18:24:25.500Z,42.60
2022-09-12T18:26:56.743Z,42.46
2022-09-12T18:29:27.800Z,42.64
2022-09-12T18:31:56.191Z,42.71
2022-09-12T18:34:24.095Z,42.68
2022-09-12T18:36:55.039Z,43.29
2022-09-12T18:39:27.490Z,43.78
2022-09-12T18:41:56.337Z,43.11
2022-09-12T18:44:24.409Z,43.10
2022-09-12T18:46:52.890Z,43.46
2022-09-12T18:49:21.034Z,44.27
2022-09-12T18:51:49.032Z,44.22
2022-09-12T18:54:18.045Z,44.50
2022-09-12T18:56:46.100Z,44.39
2022-09-12T18:59:15.036Z,44.40
2022-09-12T19:01:44.270Z,44.44
2022-09-12T19:04:14.612Z,44.80
2022-09-12T19:06:45.409Z,45.30
2022-09-12T19:09:15.775Z,45.22
2022-09-12T19:11:50.027Z,45.45
2022-09-12T19:14:23.902Z,45.78
2022-09-12T19:16:52.485Z,45.76
2022-09-12T19:19:21.411Z,45.22
2022-09-12T19:21:49.449Z,45.59
2022-09-12T19:24:18.029Z,45.60
2022-09-12T19:26:46.277Z,45.28
2022-09-12T19:29:16.681Z,45.74
2022-09-12T19:31:45.089Z,45.79
2022-09-12T19:34:13.905Z,45.90
2022-09-12T19:36:46.653Z,45.83
2022-09-12T19:39:17.761Z,46.06
2022-09-12T19:41:46.191Z,46.10
2022-09-12T19:44:14.487Z,46.38
2022-09-12T19:46:42.709Z,46.56
2022-09-12T19:49:12.506Z,47.03
2022-09-12T19:51:40.742Z,47.04
2022-09-12T19:54:09.330Z,47.03
2022-09-12T19:56:37.298Z,46.83
2022-09-12T19:59:05.881Z,46.83
2022-09-12T20:01:34.956Z,47.37
2022-09-12T20:04:03.871Z,47.33
2022-09-12T20:06:31.938Z,47.24
2022-09-12T20:09:00.040Z,47.50
2022-09-12T20:11:27.997Z,48.17
2022-09-12T20:13:55.926Z,48.02
2022-09-12T20:16:29.039Z,48.60
2022-09-12T20:19:00.901Z,48.62
2022-09-12T20:21:36.010Z,48.58
2022-09-12T20:24:12.605Z,49.14
2022-09-12T20:26:41.600Z,50.00
2022-09-12T20:29:10.286Z,49.75
2022-09-12T20:31:40.415Z,50.11
2022-09-12T20:34:14.647Z,51.09
2022-09-12T20:36:42.592Z,51.55
2022-09-12T20:39:16.703Z,51.45
2022-09-12T20:41:45.084Z,50.68
2022-09-12T20:44:13.463Z,51.49
2022-09-12T20:46:41.734Z,51.27
2022-09-12T20:49:10.122Z,50.82
2022-09-12T20:51:38.998Z,50.51
2022-09-12T20:54:07.600Z,50.15
2022-09-12T20:56:37.302Z,50.26
2022-09-12T20:59:05.990Z,50.70
2022-09-12T21:01:34.378Z,50.81
2022-09-12T21:04:03.059Z,51.18
2022-09-12T21:06:31.755Z,51.70
2022-09-12T21:09:00.812Z,52.13
2022-09-12T21:11:29.366Z,52.90
2022-09-12T21:13:58.317Z,53.09
2022-09-12T21:16:26.745Z,53.06
2022-09-12T21:18:57.432Z,53.10
2022-09-12T21:21:26.421Z,53.37
2022-09-12T21:23:58.482Z,53.39
2022-09-12T21:26:26.864Z,53.52
2022-09-12T21:28:55.016Z,53.27
2022-09-12T21:31:24.002Z,53.23
2022-09-12T21:33:52.310Z,53.43
2022-09-12T21:36:20.377Z,53.74
2022-09-12T21:38:48.453Z,53.97
2022-09-12T21:41:17.341Z,54.52
2022-09-12T21:43:45.574Z,54.73
2022-09-12T21:46:14.055Z,54.75
2022-09-12T21:48:43.603Z,55.37
2022-09-12T21:51:11.778Z,55.84
2022-09-12T21:53:39.852Z,56.02
2022-09-12T21:56:09.072Z,55.97
2022-09-12T21:58:38.237Z,56.33
2022-09-12T22:01:09.502Z,56.66
2022-09-12T22:03:37.650Z,56.75
2022-09-12T22:06:07.169Z,56.91
2022-09-12T22:08:37.507Z,57.12
2022-09-12T22:11:09.387Z,57.26
2022-09-12T22:13:42.054Z,57.31
2022-09-12T22:16:10.746Z,57.19
2022-09-12T22:18:38.793Z,57.03
2022-09-12T22:21:13.127Z,57.02
2022-09-12T22:24:00.135Z,57.11
2022-09-12T22:26:29.259Z,56.99
2022-09-12T22:28:57.192Z,56.94
2022-09-12T22:31:27.216Z,57.17
2022-09-12T22:33:57.242Z,57.07
2022-09-12T22:36:30.495Z,56.78
2022-09-12T22:38:59.840Z,57.12
2022-09-12T22:41:28.580Z,56.80
2022-09-12T22:43:57.385Z,56.84
2022-09-12T22:46:26.265Z,57.01
2022-09-12T22:48:55.768Z,56.87
2022-09-12T22:51:24.300Z,57.05
2022-09-12T22:53:52.764Z,57.34
2022-09-12T22:56:21.347Z,58.14
2022-09-12T22:58:49.827Z,58.25
2022-09-12T23:01:18.835Z,58.24
2022-09-12T23:03:47.104Z,58.36
2022-09-12T23:06:15.268Z,58.34
2022-09-12T23:08:43.443Z,58.24
2022-09-12T23:11:14.224Z,58.15
2022-09-12T23:13:44.976Z,58.53
2022-09-12T23:16:25.426Z,58.39
2022-09-12T23:18:53.648Z,57.97
2022-09-12T23:21:22.260Z,57.91
2022-09-12T23:23:50.830Z,58.34
2022-09-12T23:26:21.879Z,58.09
2022-09-12T23:28:53.928Z,58.21
2022-09-12T23:31:24.068Z,58.42
2022-09-12T23:33:56.917Z,58.82
2022-09-12T23:36:26.438Z,59.08
2022-09-12T23:38:55.226Z,59.20
2022-09-12T23:41:24.528Z,59.36
2022-09-12T23:43:52.854Z,59.07
2022-09-12T23:46:21.484Z,58.84
2022-09-12T23:48:49.670Z,58.55
2022-09-12T23:51:17.943Z,58.76
2022-09-12T23:53:45.906Z,58.61
2022-09-12T23:56:13.875Z,58.69
2022-09-12T23:58:41.979Z,58.54
